createdAt,value
2018-03-15T00:00:04.435Z,1
2018-03-15T00:05:03.237Z,1
2018-03-15T00:10:02.671Z,1
2018-03-15T00:15:03.502Z,1
2018-03-15T00:20:03.156Z,1
2018-03-15T00:25:02.796Z,1
2018-03-15T00:30:03.334Z,1
2018-03-15T00:35:02.790Z,1
2018-03-15T00:40:03.352Z,1
2018-03-15T00:45:02.784Z,1
2018-03-15T00:50:03.268Z,1
2018-03-15T00:55:02.731Z,1
2018-03-15T01:00:03.220Z,1
2018-03-15T01:05:02.744Z,1
2018-03-15T01:10:03.336Z,1
2018-03-15T01:15:02.822Z,1
2018-03-15T01:20:03.342Z,1
2018-03-15T01:25:02.768Z,1
2018-03-15T01:30:03.269Z,1
2018-03-15T01:35:02.781Z,1
2018-03-15T01:40:03.337Z,1
2018-03-15T01:45:02.739Z,1
2018-03-15T01:50:03.237Z,1
2018-03-15T01:55:02.716Z,1
2018-03-15T02:00:03.422Z,1
2018-03-15T02:05:02.885Z,1
2018-03-15T02:10:03.392Z,1
2018-03-15T02:15:02.785Z,1
2018-03-15T02:20:03.449Z,1
2018-03-15T02:25:02.920Z,1
2018-03-15T02:30:03.482Z,1
2018-03-15T02:35:03.029Z,1
2018-03-15T02:40:02.577Z,1
2018-03-15T02:45:03.040Z,1
2018-03-15T02:50:02.597Z,1
2018-03-15T02:55:03.121Z,1
2018-03-15T03:00:02.603Z,1
2018-03-15T03:05:03.122Z,1
2018-03-15T03:10:02.760Z,1
2018-03-15T03:15:03.215Z,1
2018-03-15T03:20:02.707Z,1
2018-03-15T03:25:03.207Z,1
2018-03-15T03:30:02.748Z,1
2018-03-15T03:35:03.203Z,1
2018-03-15T03:40:02.764Z,1
2018-03-15T03:45:03.264Z,1
2018-03-15T03:50:02.684Z,1
2018-03-15T03:55:03.189Z,1
2018-03-15T04:00:02.950Z,1
2018-03-15T04:05:02.526Z,1
2018-03-15T04:10:03.024Z,1
2018-03-15T04:15:02.585Z,1
2018-03-15T04:20:03.094Z,1
2018-03-15T04:25:02.539Z,1
2018-03-15T04:30:02.978Z,1
2018-03-15T04:35:03.441Z,1
2018-03-15T04:40:02.951Z,1
2018-03-15T04:45:02.497Z,1
2018-03-15T04:50:03.035Z,1
2018-03-15T04:55:02.466Z,1
2018-03-15T05:00:02.904Z,1
2018-03-15T05:05:03.360Z,1
2018-03-15T05:10:02.872Z,2
2018-03-15T05:15:03.297Z,3
2018-03-15T05:20:02.750Z,3
2018-03-15T05:25:03.318Z,10
2018-03-15T05:30:02.813Z,32
2018-03-15T05:35:03.408Z,48
2018-03-15T05:40:02.889Z,107
2018-03-15T05:45:03.397Z,148
2018-03-15T05:50:02.885Z,275
2018-03-15T05:55:03.412Z,368
2018-03-15T06:00:02.922Z,447
2018-03-15T06:05:03.364Z,573
2018-03-15T06:10:02.840Z,759
2018-03-15T06:15:03.228Z,896
2018-03-15T06:20:02.711Z,1000
2018-03-15T06:25:03.218Z,1000
2018-03-15T06:30:02.751Z,1000
2018-03-15T06:35:03.308Z,1000
2018-03-15T06:40:02.809Z,1000
2018-03-15T06:45:03.319Z,1000
2018-03-15T06:50:02.775Z,2000
2018-03-15T06:55:03.361Z,1000
2018-03-15T07:00:02.790Z,2000
2018-03-15T07:05:03.287Z,2000
2018-03-15T07:10:02.807Z,2000
2018-03-15T07:15:03.387Z,3000
2018-03-15T07:20:02.952Z,3000
2018-03-15T07:25:03.399Z,3000
2018-03-15T07:30:02.833Z,3000
2018-03-15T07:35:03.356Z,3000
2018-03-15T07:40:02.897Z,4000
2018-03-15T07:45:03.392Z,3000
2018-03-15T07:50:02.912Z,3000
2018-03-15T07:55:03.426Z,3000
2018-03-15T08:00:02.938Z,4000
2018-03-15T08:05:02.469Z,4000
2018-03-15T08:10:02.964Z,4000
2018-03-15T08:15:03.354Z,9000
2018-03-15T08:20:02.930Z,18000
2018-03-15T08:25:03.398Z,26000
2018-03-15T08:30:03.023Z,20000
2018-03-15T08:35:02.760Z,28000
2018-03-15T08:40:03.368Z,35000
2018-03-15T08:45:02.831Z,30000
2018-03-15T08:50:02.499Z,30000
2018-03-15T08:55:02.935Z,29000
2018-03-15T09:00:02.482Z,30000
2018-03-15T09:05:03.040Z,28000
2018-03-15T09:10:02.516Z,25000
2018-03-15T09:15:03.018Z,25000
2018-03-15T09:20:02.588Z,25000
2018-03-15T09:25:03.084Z,17000
2018-03-15T09:30:02.533Z,18000
2018-03-15T09:35:03.158Z,22000
2018-03-15T09:40:02.868Z,21000
2018-03-15T09:45:03.420Z,25000
2018-03-15T09:50:03.054Z,26000
2018-03-15T09:55:02.655Z,28000
2018-03-15T10:00:03.266Z,29000
2018-03-15T10:05:02.986Z,30000
2018-03-15T10:10:02.662Z,29000
2018-03-15T10:15:03.287Z,30000
2018-03-15T10:20:02.928Z,31000
2018-03-15T10:25:26.671Z,30000
2018-03-15T10:30:02.814Z,24000
2018-03-15T10:35:03.433Z,26000
2018-03-15T10:40:03.279Z,36000
2018-03-15T10:45:02.826Z,37000
2018-03-15T10:50:02.514Z,31000
2018-03-15T10:55:03.212Z,35000
2018-03-15T11:00:02.958Z,34000
2018-03-15T11:05:02.928Z,31000
2018-03-15T11:10:02.506Z,28000
2018-03-15T11:15:03.063Z,26000
2018-03-15T11:20:02.631Z,28000
2018-03-15T11:25:03.239Z,27000
2018-03-15T11:30:03.997Z,25000
2018-03-15T11:35:03.187Z,25000
2018-03-15T11:40:02.787Z,23000
2018-03-15T11:45:04.214Z,12000
2018-03-15T11:50:03.017Z,8000
2018-03-15T11:55:02.554Z,8000
2018-03-15T12:00:03.175Z,8000
2018-03-15T12:05:02.801Z,8000
2018-03-15T12:10:03.334Z,10000
2018-03-15T12:15:02.877Z,13000
2018-03-15T12:20:03.444Z,12000
2018-03-15T12:25:02.872Z,11000
2018-03-15T12:30:03.316Z,10000
2018-03-15T12:35:02.854Z,11000
2018-03-15T12:40:03.330Z,9000
2018-03-15T12:45:02.791Z,9000
2018-03-15T12:50:03.357Z,8000
2018-03-15T12:55:02.761Z,7000
2018-03-15T13:00:03.254Z,5000
2018-03-15T13:05:02.721Z,4000
2018-03-15T13:10:03.283Z,4000
2018-03-15T13:15:02.726Z,4000
2018-03-15T13:20:03.198Z,4000
2018-03-15T13:25:02.626Z,4000
2018-03-15T13:30:03.122Z,4000
2018-03-15T13:35:02.613Z,4000
2018-03-15T13:40:03.135Z,4000
2018-03-15T13:45:02.686Z,3000
2018-03-15T13:50:03.441Z,3000
2018-03-15T13:55:02.913Z,3000
2018-03-15T14:00:02.472Z,3000
2018-03-15T14:05:03.034Z,3000
2018-03-15T14:10:02.631Z,4000
2018-03-15T14:15:03.175Z,4000
2018-03-15T14:20:02.596Z,4000
2018-03-15T14:25:03.062Z,4000
2018-03-15T14:30:02.577Z,3000
2018-03-15T14:35:03.107Z,3000
2018-03-15T14:40:02.707Z,3000
2018-03-15T14:45:03.266Z,2000
2018-03-15T14:50:02.721Z,2000
2018-03-15T14:55:03.213Z,2000
2018-03-15T15:00:02.707Z,2000
2018-03-15T15:05:03.215Z,2000
2018-03-15T15:10:02.737Z,1000
2018-03-15T15:15:03.184Z,1000
2018-03-15T15:20:02.669Z,1000
2018-03-15T15:25:03.114Z,1000
2018-03-15T15:30:02.529Z,1000
2018-03-15T15:35:02.978Z,1000
2018-03-15T15:40:02.518Z,1000
2018-03-15T15:45:03.002Z,1000
2018-03-15T15:50:03.456Z,1000
2018-03-15T15:55:02.904Z,1000
2018-03-15T16:00:03.406Z,2000
2018-03-15T16:05:02.949Z,2000
2018-03-15T16:10:03.429Z,2000
2018-03-15T16:15:02.860Z,2000
2018-03-15T16:20:03.320Z,2000
2018-03-15T16:25:02.818Z,2000
2018-03-15T16:30:03.251Z,1000
2018-03-15T16:35:02.729Z,1000
2018-03-15T16:40:03.218Z,1000
2018-03-15T16:45:02.641Z,1000
2018-03-15T16:50:03.104Z,1000
2018-03-15T16:55:02.753Z,929
2018-03-15T17:00:03.396Z,796
2018-03-15T17:05:03.118Z,625
2018-03-15T17:10:02.685Z,508
2018-03-15T17:15:03.427Z,381
2018-03-15T17:20:03.148Z,301
2018-03-15T17:25:03.009Z,172
2018-03-15T17:30:03.438Z,94
2018-03-15T17:35:02.976Z,61
2018-03-15T17:40:02.495Z,43
2018-03-15T17:45:03.003Z,32
2018-03-15T17:50:02.497Z,24
2018-03-15T17:55:02.905Z,12
2018-03-15T18:00:03.422Z,7
2018-03-15T18:05:02.872Z,3
2018-03-15T18:10:03.361Z,2
2018-03-15T18:15:02.773Z,2
2018-03-15T18:20:03.647Z,1
2018-03-15T18:25:03.188Z,1
2018-03-15T18:30:02.706Z,1
2018-03-15T18:35:03.297Z,1
2018-03-15T18:40:02.850Z,1
2018-03-15T18:45:03.360Z,1
2018-03-15T18:50:02.765Z,1
2018-03-15T18:55:03.297Z,1
2018-03-15T19:00:02.837Z,1
2018-03-15T19:05:03.307Z,1
2018-03-15T19:10:02.862Z,1
2018-03-15T19:15:03.338Z,1
2018-03-15T19:20:02.796Z,1
2018-03-15T19:25:03.130Z,1
2018-03-15T19:30:02.602Z,1
2018-03-15T19:35:03.135Z,1
2018-03-15T19:40:02.671Z,1
2018-03-15T19:45:03.137Z,1
2018-03-15T19:50:02.656Z,1
2018-03-15T19:55:03.166Z,1
2018-03-15T20:00:02.607Z,1
2018-03-15T20:05:03.119Z,1
2018-03-15T20:10:02.717Z,1
2018-03-15T20:15:03.173Z,1
2018-03-15T20:20:02.655Z,1
2018-03-15T20:25:03.098Z,1
2018-03-15T20:30:02.579Z,1
2018-03-15T20:35:03.097Z,1
2018-03-15T20:40:02.606Z,1
2018-03-15T20:45:03.153Z,1
2018-03-15T20:50:02.693Z,1
2018-03-15T20:55:03.171Z,1
2018-03-15T21:00:02.702Z,1
2018-03-15T21:05:02.762Z,1
2018-03-15T21:10:03.385Z,1
2018-03-15T21:15:02.901Z,1
2018-03-15T21:20:03.391Z,1
2018-03-15T21:25:02.834Z,1
2018-03-15T21:30:03.393Z,1
2018-03-15T21:35:02.954Z,1
2018-03-15T21:40:02.477Z,1
2018-03-15T21:45:02.898Z,1
2018-03-15T21:50:03.418Z,1
2018-03-15T21:55:02.862Z,1
2018-03-15T22:00:03.419Z,1
2018-03-15T22:05:02.872Z,1
2018-03-15T22:10:02.470Z,1
2018-03-15T22:15:02.984Z,1
2018-03-15T22:20:02.559Z,1
2018-03-15T22:25:03.010Z,1
2018-03-15T22:30:03.848Z,1
2018-03-15T22:35:03.318Z,1
2018-03-15T22:40:02.920Z,1
2018-03-15T22:45:03.365Z,1
2018-03-15T22:50:02.841Z,1
2018-03-15T22:55:03.351Z,1
2018-03-15T23:00:02.981Z,1
2018-03-15T23:05:02.455Z,1
2018-03-15T23:10:03.250Z,1
2018-03-15T23:15:02.651Z,1
2018-03-15T23:20:03.087Z,1
2018-03-15T23:25:02.530Z,1
2018-03-15T23:30:03.102Z,1
2018-03-15T23:35:02.588Z,1
2018-03-15T23:40:03.166Z,1
2018-03-15T23:45:02.642Z,1
2018-03-15T23:50:03.194Z,1
2018-03-15T23:55:02.696Z,1
